Time;durP1;ratioP1;P1;durP2;ratioP2;P2;SDS_P1;SDS_P2;PMS_P1;PMS_P2;Temp;Humidity;BMP_temperature;BMP_pressure;BME280_temperature;BME280_humidity;BME280_pressure;Samples;Min_cycle;Max_cycle;Signal;HPM_P1;HPM_P2
2023/02/04 00:02:50;;;;;;;;;;;19.00;34.30;;;;;;8364690;28;20007;-46
2023/02/04 00:06:51;;;;;;;;;;;19.00;34.30;;;;;;8365238;28;19916;-45
2023/02/04 00:10:51;;;;;;;;;;;19.00;34.30;;;;;;8364819;28;19917;-46
2023/02/04 00:14:51;;;;;;;;;;;19.00;34.30;;;;;;8364284;28;19917;-45
2023/02/04 00:18:52;;;;;;;;;;;19.00;34.30;;;;;;8364725;28;19925;-45
2023/02/04 00:22:52;;;;;;;;;;;19.00;34.30;;;;;;8363134;28;19917;-46
2023/02/04 00:26:53;;;;;;;;;;;18.90;34.30;;;;;;8363885;28;19920;-46
2023/02/04 00:30:54;;;;;;;;;;;18.90;34.30;;;;;;8364627;28;19917;-45
2023/02/04 00:34:54;;;;;;;;;;;18.90;34.30;;;;;;8364230;28;20388;-45
2023/02/04 00:38:55;;;;;;;;;;;18.90;34.40;;;;;;8363524;28;19924;-46
2023/02/04 00:42:55;;;;;;;;;;;18.80;34.30;;;;;;8364235;28;20278;-46
2023/02/04 00:46:56;;;;;;;;;;;18.80;34.40;;;;;;8363800;28;20358;-44
2023/02/04 00:50:56;;;;;;;;;;;18.80;34.40;;;;;;8363451;28;19923;-43
2023/02/04 00:54:57;;;;;;;;;;;18.80;34.40;;;;;;8364110;28;20402;-45
2023/02/04 00:58:57;;;;;;;;;;;18.80;34.40;;;;;;8363498;28;19936;-45
2023/02/04 01:02:57;;;;;;;;;;;18.80;34.40;;;;;;8363083;28;19952;-44
2023/02/04 01:06:58;;;;;;;;;;;18.80;34.40;;;;;;8362915;28;19916;-44
2023/02/04 01:10:58;;;;;;;;;;;18.80;34.40;;;;;;8363336;28;19917;-44
2023/02/04 01:14:59;;;;;;;;;;;18.70;34.40;;;;;;8363251;28;19939;-44
2023/02/04 01:18:59;;;;;;;;;;;18.70;34.40;;;;;;8363555;28;19925;-45
2023/02/04 01:23:00;;;;;;;;;;;18.70;34.40;;;;;;8363306;28;19921;-45
2023/02/04 01:27:00;;;;;;;;;;;18.70;34.50;;;;;;8362606;28;19923;-44
2023/02/04 01:31:00;;;;;;;;;;;18.70;34.50;;;;;;8362414;28;20366;-44
2023/02/04 01:35:01;;;;;;;;;;;18.60;34.60;;;;;;8363162;28;19913;-45
2023/02/04 01:39:02;;;;;;;;;;;18.60;34.60;;;;;;8362498;28;20332;-45
2023/02/04 01:43:02;;;;;;;;;;;18.60;34.60;;;;;;8363121;28;20288;-44
2023/02/04 01:47:03;;;;;;;;;;;18.60;34.50;;;;;;8362770;28;19917;-44
2023/02/04 01:51:07;;;;;;;;;;;18.60;34.60;;;;;;8362373;28;20365;-44
2023/02/04 01:55:12;;;;;;;;;;;18.60;34.60;;;;;;8362780;28;20263;-45
2023/02/04 01:59:14;;;;;;;;;;;18.60;34.60;;;;;;8362531;28;19935;-44
2023/02/04 02:03:14;;;;;;;;;;;18.60;34.70;;;;;;8362141;28;20410;-44
2023/02/04 02:07:15;;;;;;;;;;;18.60;34.70;;;;;;8361506;28;19924;-44
2023/02/04 02:11:15;;;;;;;;;;;18.60;34.70;;;;;;8362600;28;19925;-44
2023/02/04 02:15:16;;;;;;;;;;;18.60;34.70;;;;;;8362283;28;19941;-44
2023/02/04 02:19:22;;;;;;;;;;;18.60;34.70;;;;;;8366758;28;19947;-45
2023/02/04 02:23:45;;;;;;;;;;;18.60;34.70;;;;;;8368313;28;20358;-44
2023/02/04 02:27:45;;;;;;;;;;;18.60;34.70;;;;;;8368223;28;19917;-44
2023/02/04 02:31:46;;;;;;;;;;;18.60;34.70;;;;;;8368269;28;19967;-44
2023/02/04 02:35:49;;;;;;;;;;;18.60;34.70;;;;;;8367877;28;20429;-43
2023/02/04 02:39:50;;;;;;;;;;;18.60;34.70;;;;;;8367761;28;19928;-44
2023/02/04 02:43:50;;;;;;;;;;;18.60;34.70;;;;;;8367743;28;20373;-44
2023/02/04 02:47:51;;;;;;;;;;;18.60;34.70;;;;;;8367114;28;19924;-45
2023/02/04 02:51:52;;;;;;;;;;;18.60;34.80;;;;;;8367770;28;19924;-45
2023/02/04 02:55:52;;;;;;;;;;;18.50;34.70;;;;;;8367708;28;19920;-45
2023/02/04 02:59:53;;;;;;;;;;;18.50;34.70;;;;;;8366715;28;19932;-44
2023/02/04 03:03:53;;;;;;;;;;;18.50;34.70;;;;;;8367021;28;19917;-45
2023/02/04 03:07:54;;;;;;;;;;;18.50;34.80;;;;;;8367076;28;20007;-45
2023/02/04 03:11:54;;;;;;;;;;;18.50;34.80;;;;;;8366412;28;20027;-45
2023/02/04 03:15:55;;;;;;;;;;;18.60;34.80;;;;;;8366830;28;20345;-46
2023/02/04 03:19:55;;;;;;;;;;;18.60;34.70;;;;;;8366434;28;20399;-44
2023/02/04 03:23:56;;;;;;;;;;;18.50;34.70;;;;;;8366077;28;20274;-45
2023/02/04 03:27:57;;;;;;;;;;;18.60;34.80;;;;;;8366392;28;19916;-45
2023/02/04 03:31:58;;;;;;;;;;;18.60;34.80;;;;;;8365643;28;20411;-45
2023/02/04 03:35:59;;;;;;;;;;;18.50;34.80;;;;;;8366024;28;20255;-45
2023/02/04 03:39:59;;;;;;;;;;;18.50;34.70;;;;;;8365740;28;19925;-44
2023/02/04 03:44:00;;;;;;;;;;;18.50;34.80;;;;;;8365603;28;19921;-45
2023/02/04 03:48:00;;;;;;;;;;;18.50;34.70;;;;;;8365292;28;19951;-44
2023/02/04 03:52:01;;;;;;;;;;;18.50;35.30;;;;;;8365809;28;19964;-45
2023/02/04 03:56:02;;;;;;;;;;;18.50;34.80;;;;;;8366087;28;20293;-45
2023/02/04 04:00:02;;;;;;;;;;;18.50;34.80;;;;;;8364873;28;20031;-45
2023/02/04 04:04:03;;;;;;;;;;;18.50;34.80;;;;;;8365290;28;19924;-45
2023/02/04 04:08:03;;;;;;;;;;;18.50;34.80;;;;;;8364845;28;19917;-45
2023/02/04 04:12:04;;;;;;;;;;;18.50;34.80;;;;;;8364516;28;19928;-45
2023/02/04 04:16:04;;;;;;;;;;;18.50;34.80;;;;;;8365439;28;19999;-46
2023/02/04 04:20:05;;;;;;;;;;;18.50;34.80;;;;;;8364722;28;20050;-45
2023/02/04 04:24:05;;;;;;;;;;;18.50;34.80;;;;;;8364087;28;20000;-45
2023/02/04 04:28:06;;;;;;;;;;;18.50;34.80;;;;;;8364445;28;20279;-45
2023/02/04 04:32:08;;;;;;;;;;;18.50;34.80;;;;;;8364343;28;20340;-44
2023/02/04 04:36:08;;;;;;;;;;;18.50;35.30;;;;;;8364125;28;19913;-45
2023/02/04 04:40:12;;;;;;;;;;;18.50;34.80;;;;;;8363338;28;20388;-45
2023/02/04 04:44:12;;;;;;;;;;;18.50;34.80;;;;;;8363505;28;19927;-44
2023/02/04 04:48:13;;;;;;;;;;;18.50;34.80;;;;;;8363451;28;19917;-44
2023/02/04 04:52:13;;;;;;;;;;;18.50;34.70;;;;;;8363900;28;19913;-44
2023/02/04 04:56:14;;;;;;;;;;;18.50;34.70;;;;;;8363739;28;20007;-44
2023/02/04 05:00:16;;;;;;;;;;;18.50;34.80;;;;;;8363159;28;20301;-44
2023/02/04 05:04:16;;;;;;;;;;;18.50;34.80;;;;;;8363881;28;19921;-44
2023/02/04 05:08:18;;;;;;;;;;;18.50;34.80;;;;;;8363605;28;19963;-45
2023/02/04 05:12:18;;;;;;;;;;;18.50;34.90;;;;;;8334965;28;20362;-45
2023/02/04 05:16:19;;;;;;;;;;;18.60;34.90;;;;;;8363391;28;19913;-44
2023/02/04 05:20:19;;;;;;;;;;;18.60;34.90;;;;;;8362958;28;19924;-45
2023/02/04 05:24:19;;;;;;;;;;;18.70;34.80;;;;;;8362741;28;20386;-44
2023/02/04 05:28:20;;;;;;;;;;;18.80;34.80;;;;;;8363331;28;20011;-45
2023/02/04 05:32:20;;;;;;;;;;;18.80;34.80;;;;;;8363196;28;19917;-44
2023/02/04 05:36:21;;;;;;;;;;;18.90;34.70;;;;;;8362698;28;19913;-45
2023/02/04 05:40:21;;;;;;;;;;;18.90;34.70;;;;;;8362761;28;20405;-45
2023/02/04 05:44:22;;;;;;;;;;;19.00;35.20;;;;;;8362758;28;19917;-44
2023/02/04 05:48:22;;;;;;;;;;;19.00;34.60;;;;;;8362250;28;20011;-45
2023/02/04 05:52:23;;;;;;;;;;;19.10;34.60;;;;;;8364271;28;19935;-44
2023/02/04 05:56:24;;;;;;;;;;;19.10;34.60;;;;;;8369241;28;19983;-45
2023/02/04 06:00:24;;;;;;;;;;;19.10;34.60;;;;;;8368557;28;19932;-44
2023/02/04 06:04:25;;;;;;;;;;;19.20;34.50;;;;;;8368891;28;19917;-44
2023/02/04 06:08:25;;;;;;;;;;;19.20;34.50;;;;;;8368674;28;20414;-44
2023/02/04 06:12:25;;;;;;;;;;;19.30;34.60;;;;;;8368484;28;20003;-44
2023/02/04 06:16:26;;;;;;;;;;;19.30;34.60;;;;;;8368670;28;20324;-44
2023/02/04 06:20:26;;;;;;;;;;;19.20;34.60;;;;;;8368182;28;20352;-44
2023/02/04 06:24:27;;;;;;;;;;;19.30;34.60;;;;;;8367970;28;20298;-44
2023/02/04 06:28:27;;;;;;;;;;;19.30;34.60;;;;;;8368236;28;19917;-45
2023/02/04 06:32:28;;;;;;;;;;;19.40;34.60;;;;;;8368389;28;19920;-45
2023/02/04 06:36:28;;;;;;;;;;;19.40;34.60;;;;;;8367565;28;20289;-45
2023/02/04 06:40:28;;;;;;;;;;;19.40;34.50;;;;;;8368046;28;20369;-45
2023/02/04 06:44:29;;;;;;;;;;;19.50;34.60;;;;;;8367712;28;19921;-44
2023/02/04 06:48:29;;;;;;;;;;;19.50;34.60;;;;;;8367150;28;19996;-45
2023/02/04 06:52:30;;;;;;;;;;;19.50;34.60;;;;;;8367625;28;19923;-45
2023/02/04 06:56:30;;;;;;;;;;;19.50;34.60;;;;;;8367862;28;19931;-45
2023/02/04 07:00:31;;;;;;;;;;;19.50;34.60;;;;;;8366689;28;19929;-44
2023/02/04 07:04:31;;;;;;;;;;;19.50;34.60;;;;;;8365978;28;19917;-45
2023/02/04 07:08:32;;;;;;;;;;;19.60;34.70;;;;;;8367164;28;20504;-45
2023/02/04 07:12:32;;;;;;;;;;;19.60;34.70;;;;;;8366613;28;19966;-45
2023/02/04 07:16:33;;;;;;;;;;;19.60;34.60;;;;;;8367118;28;19917;-46
2023/02/04 07:20:33;;;;;;;;;;;19.60;34.60;;;;;;8366462;28;19931;-45
2023/02/04 07:24:34;;;;;;;;;;;19.70;34.60;;;;;;8365849;28;20006;-45
2023/02/04 07:28:35;;;;;;;;;;;19.70;34.60;;;;;;8366137;28;20413;-45
2023/02/04 07:32:36;;;;;;;;;;;19.70;34.60;;;;;;8366487;28;20356;-45
2023/02/04 07:36:36;;;;;;;;;;;19.70;34.60;;;;;;8365614;28;19928;-45
2023/02/04 07:40:38;;;;;;;;;;;19.70;34.60;;;;;;8365614;28;20008;-46
2023/02/04 07:44:38;;;;;;;;;;;19.70;34.50;;;;;;8365772;28;19958;-45
2023/02/04 07:48:38;;;;;;;;;;;19.70;34.60;;;;;;8365129;28;19917;-46
2023/02/04 07:52:39;;;;;;;;;;;19.80;34.60;;;;;;8365518;28;19913;-46
2023/02/04 07:56:39;;;;;;;;;;;19.80;34.60;;;;;;8365269;28;19924;-46
2023/02/04 08:00:40;;;;;;;;;;;19.80;34.60;;;;;;8364859;28;19928;-46
2023/02/04 08:04:40;;;;;;;;;;;19.80;34.50;;;;;;8356978;28;20328;-46
2023/02/04 08:08:41;;;;;;;;;;;19.80;34.50;;;;;;8335161;28;19921;-46
2023/02/04 08:12:41;;;;;;;;;;;19.80;34.50;;;;;;8364596;28;20015;-45
2023/02/04 08:16:41;;;;;;;;;;;19.90;34.60;;;;;;8364575;28;19916;-45
2023/02/04 08:20:42;;;;;;;;;;;19.90;34.60;;;;;;8364383;28;19925;-45
2023/02/04 08:24:42;;;;;;;;;;;19.90;34.60;;;;;;8363990;28;19921;-45
2023/02/04 08:28:43;;;;;;;;;;;19.90;34.60;;;;;;8364154;28;19916;-45
2023/02/04 08:32:43;;;;;;;;;;;19.90;34.60;;;;;;8364384;28;19920;-44
2023/02/04 08:36:44;;;;;;;;;;;20.00;34.60;;;;;;8363660;28;19916;-45
2023/02/04 08:40:44;;;;;;;;;;;20.00;34.60;;;;;;8364172;28;20003;-45
2023/02/04 08:44:45;;;;;;;;;;;20.00;34.60;;;;;;8363843;28;19917;-46
2023/02/04 08:48:45;;;;;;;;;;;20.00;34.60;;;;;;8363704;28;19912;-45
2023/02/04 08:52:46;;;;;;;;;;;20.00;34.50;;;;;;8363962;28;19912;-46
2023/02/04 08:56:46;;;;;;;;;;;20.10;34.60;;;;;;8363486;28;20015;-44
2023/02/04 09:00:47;;;;;;;;;;;20.00;34.60;;;;;;8363371;28;20389;-45
2023/02/04 09:04:47;;;;;;;;;;;20.10;34.60;;;;;;8363248;28;19921;-46
2023/02/04 09:08:48;;;;;;;;;;;20.10;34.60;;;;;;8362827;28;19913;-46
2023/02/04 09:12:48;;;;;;;;;;;20.10;34.60;;;;;;8363694;28;19948;-45
2023/02/04 09:16:49;;;;;;;;;;;20.10;34.60;;;;;;8363228;28;19921;-46
2023/02/04 09:20:49;;;;;;;;;;;20.10;34.60;;;;;;8362665;28;19920;-46
2023/02/04 09:24:50;;;;;;;;;;;20.20;34.50;;;;;;8363287;28;19940;-46
2023/02/04 09:28:50;;;;;;;;;;;20.20;34.50;;;;;;8370469;28;20444;-45
2023/02/04 09:32:50;;;;;;;;;;;20.20;34.50;;;;;;8373272;28;19935;-45
2023/02/04 09:36:51;;;;;;;;;;;20.20;34.50;;;;;;8373683;28;19921;-44
2023/02/04 09:41:01;;;;;;;;;;;20.20;34.50;;;;;;8373328;28;19921;-44
2023/02/04 09:45:02;;;;;;;;;;;20.20;34.40;;;;;;8373031;28;20381;-46
2023/02/04 09:49:03;;;;;;;;;;;20.30;34.50;;;;;;8373580;28;19917;-45
2023/02/04 09:53:04;;;;;;;;;;;20.20;34.50;;;;;;8373984;28;20051;-44
2023/02/04 09:57:16;;;;;;;;;;;20.30;34.50;;;;;;8373442;28;19929;-45
2023/02/04 10:01:17;;;;;;;;;;;20.30;34.50;;;;;;8373667;28;19931;-45
2023/02/04 10:05:20;;;;;;;;;;;20.30;34.50;;;;;;8373313;28;19926;-45
2023/02/04 10:09:20;;;;;;;;;;;20.30;34.50;;;;;;8372730;28;19921;-45
2023/02/04 10:13:32;;;;;;;;;;;20.30;34.50;;;;;;8373477;28;20310;-45
2023/02/04 10:17:33;;;;;;;;;;;20.30;35.00;;;;;;8373288;28;20463;-45
2023/02/04 10:21:35;;;;;;;;;;;20.40;34.50;;;;;;8372585;28;19979;-45
2023/02/04 10:25:36;;;;;;;;;;;20.40;34.50;;;;;;8373187;28;19956;-45
2023/02/04 10:29:37;;;;;;;;;;;20.40;34.50;;;;;;8373184;28;19936;-44
2023/02/04 10:33:38;;;;;;;;;;;20.40;34.60;;;;;;8373088;28;19917;-48
2023/02/04 10:37:39;;;;;;;;;;;20.40;34.60;;;;;;8372599;28;19916;-45
2023/02/04 10:41:50;;;;;;;;;;;20.40;34.60;;;;;;8366452;28;19924;-46
2023/02/04 10:45:58;;;;;;;;;;;20.40;34.60;;;;;;8367499;28;20297;-44
2023/02/04 10:50:16;;;;;;;;;;;20.40;34.60;;;;;;8367804;28;19917;-46
2023/02/04 10:54:28;;;;;;;;;;;20.40;34.50;;;;;;8366914;28;19916;-45
2023/02/04 10:58:30;;;;;;;;;;;20.40;34.50;;;;;;8367960;28;19925;-45
2023/02/04 11:02:33;;;;;;;;;;;20.40;34.50;;;;;;8366850;28;20019;-45
2023/02/04 11:06:34;;;;;;;;;;;20.50;34.50;;;;;;8366944;28;20388;-45
2023/02/04 11:10:34;;;;;;;;;;;20.50;34.50;;;;;;8344339;28;19917;-46
2023/02/04 11:14:34;;;;;;;;;;;20.50;34.50;;;;;;8366555;28;19917;-45
2023/02/04 11:18:52;;;;;;;;;;;20.50;34.50;;;;;;8366285;28;19931;-45
2023/02/04 11:22:53;;;;;;;;;;;20.50;34.50;;;;;;8366269;28;19924;-45
2023/02/04 11:27:17;;;;;;;;;;;20.50;34.50;;;;;;8365737;28;19920;-45
2023/02/04 11:31:20;;;;;;;;;;;20.50;34.50;;;;;;8366265;28;20388;-45
2023/02/04 11:35:23;;;;;;;;;;;20.50;34.50;;;;;;8365838;28;20391;-44
2023/02/04 11:39:43;;;;;;;;;;;20.60;34.50;;;;;;8365603;28;19931;-45
2023/02/04 11:43:43;;;;;;;;;;;20.50;34.40;;;;;;8365840;28;19943;-45
2023/02/04 11:47:45;;;;;;;;;;;20.60;34.40;;;;;;8366064;28;20358;-45
2023/02/04 11:51:45;;;;;;;;;;;20.60;34.40;;;;;;8364707;28;20404;-45
2023/02/04 11:55:45;;;;;;;;;;;20.60;34.40;;;;;;8365619;28;19921;-44
2023/02/04 11:59:46;;;;;;;;;;;20.60;34.40;;;;;;8365015;28;19927;-44
2023/02/04 12:03:47;;;;;;;;;;;20.60;34.30;;;;;;8365037;28;19917;-44
2023/02/04 12:07:48;;;;;;;;;;;20.60;34.40;;;;;;8365156;28;19917;-44
2023/02/04 12:11:56;;;;;;;;;;;20.60;34.30;;;;;;8364250;28;20421;-45
2023/02/04 12:16:01;;;;;;;;;;;20.70;34.40;;;;;;8365034;28;19951;-44
2023/02/04 12:20:01;;;;;;;;;;;20.70;34.40;;;;;;8364459;28;19924;-44
2023/02/04 12:24:01;;;;;;;;;;;20.70;34.30;;;;;;8364198;28;20401;-45
2023/02/04 12:28:02;;;;;;;;;;;20.70;34.30;;;;;;8364279;28;20401;-45
2023/02/04 12:32:02;;;;;;;;;;;20.70;34.30;;;;;;8364344;28;19916;-45
2023/02/04 12:36:03;;;;;;;;;;;20.70;34.30;;;;;;8364377;28;19944;-46
2023/02/04 12:40:04;;;;;;;;;;;20.70;34.30;;;;;;8364328;28;19925;-46
2023/02/04 12:44:04;;;;;;;;;;;20.70;34.30;;;;;;8363915;28;19924;-43
2023/02/04 12:48:05;;;;;;;;;;;20.70;34.30;;;;;;8363264;28;19979;-44
2023/02/04 12:52:05;;;;;;;;;;;20.70;34.30;;;;;;8363739;28;19916;-43
2023/02/04 12:56:06;;;;;;;;;;;20.80;34.90;;;;;;8363549;28;20378;-44
2023/02/04 13:00:07;;;;;;;;;;;20.80;34.30;;;;;;8363219;28;19921;-44
2023/02/04 13:04:07;;;;;;;;;;;20.80;34.30;;;;;;8362658;28;20328;-44
2023/02/04 13:08:08;;;;;;;;;;;20.80;34.20;;;;;;8363531;28;19917;-45
2023/02/04 13:12:08;;;;;;;;;;;20.80;34.30;;;;;;8362878;28;19923;-45
2023/02/04 13:16:09;;;;;;;;;;;20.80;34.20;;;;;;8363195;28;19924;-44
2023/02/04 13:20:09;;;;;;;;;;;20.80;34.20;;;;;;8363051;28;19921;-44
2023/02/04 13:24:10;;;;;;;;;;;20.80;34.20;;;;;;8362697;28;19918;-44
2023/02/04 13:28:11;;;;;;;;;;;20.80;34.20;;;;;;8363181;28;19917;-44
2023/02/04 13:32:11;;;;;;;;;;;20.80;34.20;;;;;;8363020;28;19921;-44
2023/02/04 13:36:12;;;;;;;;;;;20.90;34.30;;;;;;8362438;28;19917;-45
2023/02/04 13:40:12;;;;;;;;;;;20.90;34.20;;;;;;8363041;28;19931;-45
2023/02/04 13:44:13;;;;;;;;;;;20.80;34.20;;;;;;8362712;28;19925;-46
2023/02/04 13:48:13;;;;;;;;;;;20.90;34.30;;;;;;8362182;28;19948;-46
2023/02/04 13:52:17;;;;;;;;;;;20.90;34.20;;;;;;8362605;28;19917;-46
2023/02/04 13:56:17;;;;;;;;;;;20.90;34.20;;;;;;8362892;28;19920;-45
2023/02/04 14:00:18;;;;;;;;;;;20.90;34.20;;;;;;8362327;28;19921;-45
2023/02/04 14:04:18;;;;;;;;;;;20.90;34.20;;;;;;8362467;28;19923;-46
2023/02/04 14:08:19;;;;;;;;;;;20.90;34.20;;;;;;8362191;28;19944;-47
2023/02/04 14:12:19;;;;;;;;;;;20.90;34.20;;;;;;8360872;28;20360;-44
2023/02/04 14:16:20;;;;;;;;;;;20.90;34.20;;;;;;8368182;28;20325;-44
2023/02/04 14:20:21;;;;;;;;;;;20.90;34.10;;;;;;8368636;28;20313;-44
2023/02/04 14:24:21;;;;;;;;;;;20.90;34.20;;;;;;8367756;28;19974;-44
2023/02/04 14:28:22;;;;;;;;;;;20.90;34.20;;;;;;8368186;28;20443;-44
2023/02/04 14:32:22;;;;;;;;;;;21.00;34.20;;;;;;8368091;28;19974;-44
2023/02/04 14:36:23;;;;;;;;;;;20.90;34.20;;;;;;8367534;28;19917;-45
2023/02/04 14:40:23;;;;;;;;;;;20.90;34.20;;;;;;8367973;28;20003;-44
2023/02/04 14:44:24;;;;;;;;;;;21.00;34.20;;;;;;8367689;28;19917;-44
2023/02/04 14:48:24;;;;;;;;;;;20.90;34.20;;;;;;8367078;28;19924;-45
2023/02/04 14:52:25;;;;;;;;;;;20.90;34.30;;;;;;8367682;28;20017;-45
2023/02/04 14:56:26;;;;;;;;;;;21.00;34.30;;;;;;8367601;28;19920;-44
2023/02/04 15:00:26;;;;;;;;;;;21.00;34.20;;;;;;8366928;28;20382;-44
2023/02/04 15:04:26;;;;;;;;;;;21.00;34.30;;;;;;8367377;28;19920;-45
2023/02/04 15:08:27;;;;;;;;;;;21.00;34.30;;;;;;8366863;28;19966;-44
2023/02/04 15:12:27;;;;;;;;;;;21.00;34.30;;;;;;8366484;28;19939;-45
2023/02/04 15:16:28;;;;;;;;;;;21.00;34.20;;;;;;8366684;28;19913;-43
2023/02/04 15:20:28;;;;;;;;;;;21.00;34.30;;;;;;8366671;28;19928;-44
2023/02/04 15:24:29;;;;;;;;;;;21.00;34.20;;;;;;8365035;28;19917;-44
2023/02/04 15:28:30;;;;;;;;;;;21.00;34.20;;;;;;8366457;28;20007;-44
2023/02/04 15:32:30;;;;;;;;;;;21.10;34.30;;;;;;8366203;28;19923;-44
2023/02/04 15:36:31;;;;;;;;;;;21.00;34.20;;;;;;8365640;28;20500;-45
2023/02/04 15:40:31;;;;;;;;;;;21.00;34.30;;;;;;8366217;28;20261;-43
2023/02/04 15:44:32;;;;;;;;;;;21.00;34.20;;;;;;8365569;28;19928;-45
2023/02/04 15:48:32;;;;;;;;;;;21.10;34.20;;;;;;8365077;28;20345;-43
2023/02/04 15:52:32;;;;;;;;;;;21.00;34.20;;;;;;8365538;28;19917;-44
2023/02/04 15:56:33;;;;;;;;;;;21.10;34.20;;;;;;8365702;28;19927;-45
2023/02/04 16:00:34;;;;;;;;;;;21.00;34.10;;;;;;8364729;28;19947;-44
2023/02/04 16:04:34;;;;;;;;;;;21.00;34.10;;;;;;8365186;28;19943;-45
2023/02/04 16:08:35;;;;;;;;;;;21.00;34.10;;;;;;8364954;28;19913;-44
2023/02/04 16:12:35;;;;;;;;;;;21.10;34.10;;;;;;8364176;28;19987;-44
2023/02/04 16:16:35;;;;;;;;;;;21.10;34.00;;;;;;8364918;28;19917;-43
2023/02/04 16:20:36;;;;;;;;;;;21.10;34.10;;;;;;8364804;28;19925;-44
2023/02/04 16:24:37;;;;;;;;;;;21.10;34.00;;;;;;8364082;28;19921;-44
2023/02/04 16:28:38;;;;;;;;;;;21.10;34.10;;;;;;8364755;28;20399;-44
2023/02/04 16:32:38;;;;;;;;;;;21.10;34.00;;;;;;8364300;28;19913;-44
2023/02/04 16:36:38;;;;;;;;;;;21.10;34.00;;;;;;8363826;28;19983;-44
2023/02/04 16:40:39;;;;;;;;;;;21.10;34.00;;;;;;8363998;28;20341;-45
2023/02/04 16:44:39;;;;;;;;;;;21.10;34.00;;;;;;8363791;28;19920;-44
2023/02/04 16:48:40;;;;;;;;;;;21.10;33.90;;;;;;8363266;28;19917;-45
2023/02/04 16:52:40;;;;;;;;;;;21.10;33.90;;;;;;8363720;28;19913;-44
2023/02/04 16:56:41;;;;;;;;;;;21.10;33.90;;;;;;8364196;28;19960;-44
2023/02/04 17:00:42;;;;;;;;;;;21.10;33.90;;;;;;8363229;28;19929;-45
2023/02/04 17:04:43;;;;;;;;;;;21.10;33.90;;;;;;8363648;28;19962;-45
2023/02/04 17:08:43;;;;;;;;;;;21.10;33.90;;;;;;8354780;28;19918;-45
2023/02/04 17:12:44;;;;;;;;;;;21.10;33.90;;;;;;8336334;28;19916;-45
2023/02/04 17:16:45;;;;;;;;;;;21.10;33.90;;;;;;8363326;28;19913;-45
2023/02/04 17:20:45;;;;;;;;;;;21.10;34.00;;;;;;8362820;28;19925;-45
2023/02/04 17:24:46;;;;;;;;;;;21.10;34.00;;;;;;8363015;28;19917;-45
2023/02/04 17:28:46;;;;;;;;;;;21.10;33.90;;;;;;8362932;28;19924;-45
2023/02/04 17:32:46;;;;;;;;;;;21.10;33.90;;;;;;8362530;28;19987;-46
2023/02/04 17:36:47;;;;;;;;;;;21.10;33.90;;;;;;8363094;28;19913;-45
2023/02/04 17:40:49;;;;;;;;;;;21.10;33.90;;;;;;8363125;28;19924;-44
2023/02/04 17:44:49;;;;;;;;;;;21.10;33.80;;;;;;8362459;28;20000;-45
2023/02/04 17:48:49;;;;;;;;;;;21.10;33.90;;;;;;8365263;28;19966;-45
2023/02/04 17:52:51;;;;;;;;;;;21.10;33.80;;;;;;8369486;28;19974;-45
2023/02/04 17:56:52;;;;;;;;;;;21.10;33.80;;;;;;8367900;28;19927;-45
2023/02/04 18:00:54;;;;;;;;;;;21.10;33.80;;;;;;8369144;28;19928;-45
2023/02/04 18:04:58;;;;;;;;;;;21.10;34.40;;;;;;8368850;28;19998;-45
2023/02/04 18:09:00;;;;;;;;;;;21.10;33.80;;;;;;8368462;28;20420;-44
2023/02/04 18:13:05;;;;;;;;;;;21.10;33.80;;;;;;8368983;28;19916;-45
2023/02/04 18:17:08;;;;;;;;;;;21.10;33.80;;;;;;8367523;28;19913;-45
2023/02/04 18:21:17;;;;;;;;;;;21.20;33.80;;;;;;8368026;28;19925;-44
2023/02/04 18:25:18;;;;;;;;;;;21.10;33.80;;;;;;8368333;28;20370;-44
2023/02/04 18:29:29;;;;;;;;;;;21.20;33.80;;;;;;8368229;28;19971;-45
2023/02/04 18:33:30;;;;;;;;;;;21.20;33.80;;;;;;8367749;28;20270;-46
2023/02/04 18:37:33;;;;;;;;;;;21.10;33.80;;;;;;8368082;28;19974;-43
2023/02/04 18:41:33;;;;;;;;;;;21.20;33.80;;;;;;8368057;28;19954;-44
2023/02/04 18:45:34;;;;;;;;;;;21.10;33.80;;;;;;8367224;28;19916;-44
2023/02/04 18:49:38;;;;;;;;;;;21.20;33.80;;;;;;8367837;28;19917;-43
2023/02/04 18:53:39;;;;;;;;;;;21.20;33.80;;;;;;8363102;28;19921;-43
2023/02/04 18:57:39;;;;;;;;;;;21.10;33.70;;;;;;8367296;28;19925;-44
2023/02/04 19:01:39;;;;;;;;;;;21.00;33.90;;;;;;8365852;28;19925;-43
2023/02/04 19:05:45;;;;;;;;;;;21.00;33.90;;;;;;8366993;28;19962;-43
2023/02/04 19:09:45;;;;;;;;;;;21.00;33.80;;;;;;8366682;28;19917;-43
2023/02/04 19:13:46;;;;;;;;;;;21.00;33.70;;;;;;8366651;28;19944;-43
2023/02/04 19:17:46;;;;;;;;;;;21.10;33.70;;;;;;8366459;28;19923;-42
2023/02/04 19:21:48;;;;;;;;;;;21.10;33.80;;;;;;8366604;28;19925;-44
2023/02/04 19:25:49;;;;;;;;;;;21.00;34.60;;;;;;8366504;28;20405;-44
2023/02/04 19:29:49;;;;;;;;;;;20.70;32.70;;;;;;8365943;28;19913;-44
2023/02/04 19:33:52;;;;;;;;;;;20.40;31.80;;;;;;8366158;28;19917;-43
2023/02/04 19:37:56;;;;;;;;;;;20.10;31.20;;;;;;8366375;28;19927;-44
2023/02/04 19:41:57;;;;;;;;;;;19.90;30.80;;;;;;8365658;28;19986;-44
2023/02/04 19:45:57;;;;;;;;;;;19.70;32.30;;;;;;8365787;28;19917;-43
2023/02/04 19:50:13;;;;;;;;;;;19.90;33.00;;;;;;8365827;28;20015;-44
2023/02/04 19:54:18;;;;;;;;;;;20.00;32.90;;;;;;8365111;28;19921;-45
2023/02/04 19:58:23;;;;;;;;;;;20.20;32.80;;;;;;8364231;28;19924;-44
2023/02/04 20:02:38;;;;;;;;;;;20.30;32.70;;;;;;8350508;28;20411;-44
2023/02/04 20:06:41;;;;;;;;;;;20.40;32.70;;;;;;8361155;28;19963;-44
2023/02/04 20:10:43;;;;;;;;;;;20.40;32.70;;;;;;8364842;28;19929;-45
2023/02/04 20:15:07;;;;;;;;;;;20.40;32.70;;;;;;8365080;28;20003;-44
2023/02/04 20:19:17;;;;;;;;;;;20.40;32.90;;;;;;8342040;28;19956;-47
2023/02/04 20:23:27;;;;;;;;;;;20.40;33.10;;;;;;8352765;28;19971;-45
2023/02/04 20:27:35;;;;;;;;;;;20.40;33.00;;;;;;8333769;28;19917;-44
2023/02/04 20:31:38;;;;;;;;;;;20.30;33.20;;;;;;8331844;28;19921;-45
2023/02/04 20:35:38;;;;;;;;;;;20.30;33.20;;;;;;8331287;28;19920;-45
2023/02/04 20:39:39;;;;;;;;;;;20.30;33.20;;;;;;8330698;28;20321;-44
2023/02/04 20:43:40;;;;;;;;;;;20.30;33.30;;;;;;8331299;28;19913;-44
2023/02/04 20:47:41;;;;;;;;;;;20.30;33.40;;;;;;8331452;28;20326;-44
2023/02/04 20:51:41;;;;;;;;;;;20.30;33.50;;;;;;8330478;28;20336;-44
2023/02/04 20:55:45;;;;;;;;;;;20.20;33.50;;;;;;8347045;28;20015;-44
2023/02/04 20:59:48;;;;;;;;;;;20.30;33.60;;;;;;8363138;28;19925;-42
2023/02/04 21:03:50;;;;;;;;;;;20.20;33.60;;;;;;8363563;28;21302;-44
2023/02/04 21:07:53;;;;;;;;;;;20.20;33.80;;;;;;8363047;28;20309;-45
2023/02/04 21:11:54;;;;;;;;;;;20.10;33.70;;;;;;8363017;28;20008;-44
2023/02/04 21:15:55;;;;;;;;;;;20.20;33.80;;;;;;8363439;28;20373;-45
2023/02/04 21:19:55;;;;;;;;;;;20.10;33.80;;;;;;8363173;28;19921;-44
2023/02/04 21:23:56;;;;;;;;;;;20.20;34.70;;;;;;8361845;28;21431;-45
2023/02/04 21:27:56;;;;;;;;;;;20.10;34.30;;;;;;8363290;28;19920;-44
2023/02/04 21:31:57;;;;;;;;;;;20.10;34.00;;;;;;8363112;28;19939;-45
2023/02/04 21:35:57;;;;;;;;;;;20.10;34.00;;;;;;8362626;28;19920;-45
2023/02/04 21:39:58;;;;;;;;;;;20.00;34.00;;;;;;8363089;28;19928;-45
2023/02/04 21:43:58;;;;;;;;;;;20.00;34.10;;;;;;8362729;28;19920;-45
2023/02/04 21:47:59;;;;;;;;;;;20.00;34.00;;;;;;8362577;28;20278;-44
2023/02/04 21:51:59;;;;;;;;;;;20.00;34.30;;;;;;8362345;28;20365;-43
2023/02/04 21:56:00;;;;;;;;;;;19.90;34.10;;;;;;8354995;28;20273;-44
2023/02/04 22:00:00;;;;;;;;;;;19.90;34.10;;;;;;8361901;28;20016;-45
2023/02/04 22:04:00;;;;;;;;;;;19.90;34.70;;;;;;8362363;28;19920;-43
2023/02/04 22:08:01;;;;;;;;;;;19.90;35.20;;;;;;8362667;28;19920;-43
2023/02/04 22:12:03;;;;;;;;;;;19.90;35.30;;;;;;8359987;28;19916;-43
2023/02/04 22:16:03;;;;;;;;;;;19.80;34.50;;;;;;8357895;28;20365;-41
2023/02/04 22:20:04;;;;;;;;;;;19.80;34.60;;;;;;8359238;28;20012;-43
2023/02/04 22:24:04;;;;;;;;;;;19.80;34.80;;;;;;8361022;28;19928;-44
2023/02/04 22:28:05;;;;;;;;;;;19.80;34.50;;;;;;8362517;28;19913;-44
2023/02/04 22:32:05;;;;;;;;;;;19.80;34.50;;;;;;8362048;28;19917;-44
2023/02/04 22:36:06;;;;;;;;;;;19.80;34.90;;;;;;8365699;28;19948;-43
2023/02/04 22:40:07;;;;;;;;;;;19.80;34.70;;;;;;8367815;28;20385;-44
2023/02/04 22:44:08;;;;;;;;;;;19.80;34.70;;;;;;8367956;28;19917;-44
2023/02/04 22:48:08;;;;;;;;;;;19.80;34.70;;;;;;8367299;28;20465;-44
2023/02/04 22:52:09;;;;;;;;;;;19.80;34.80;;;;;;8367372;28;19970;-44
2023/02/04 22:56:09;;;;;;;;;;;19.80;34.80;;;;;;8367566;28;20301;-45
2023/02/04 23:00:10;;;;;;;;;;;19.80;34.80;;;;;;8365876;28;19925;-44
2023/02/04 23:04:11;;;;;;;;;;;19.80;34.80;;;;;;8367385;28;20331;-43
2023/02/04 23:08:11;;;;;;;;;;;19.80;34.80;;;;;;8366213;28;19918;-44
2023/02/04 23:12:12;;;;;;;;;;;19.80;34.90;;;;;;8366504;28;19964;-44
2023/02/04 23:16:12;;;;;;;;;;;19.80;34.90;;;;;;8366704;28;19920;-44
2023/02/04 23:20:13;;;;;;;;;;;19.80;35.00;;;;;;8366458;28;19951;-44
2023/02/04 23:24:14;;;;;;;;;;;19.80;34.90;;;;;;8366201;28;20330;-45